createdAt,value
2022-08-01T00:01:47.819Z,14.24
2022-08-01T00:04:15.920Z,14.25
2022-08-01T00:06:44.051Z,14.24
2022-08-01T00:09:12.228Z,14.22
2022-08-01T00:11:59.543Z,14.25
2022-08-01T00:14:34.787Z,14.26
2022-08-01T00:17:07.413Z,14.23
2022-08-01T00:19:35.976Z,14.21
2022-08-01T00:22:04.675Z,14.14
2022-08-01T00:24:33.030Z,14.10
2022-08-01T00:27:01.173Z,14.06
2022-08-01T00:30:13.323Z,14.01
2022-08-01T00:32:18.871Z,14.02
2022-08-01T00:34:47.492Z,14.00
2022-08-01T00:37:16.159Z,13.99
2022-08-01T00:39:44.534Z,13.99
2022-08-01T00:42:14.347Z,14.04
2022-08-01T00:44:42.810Z,13.95
2022-08-01T00:47:11.264Z,13.99
2022-08-01T00:49:41.175Z,13.97
2022-08-01T00:52:11.408Z,13.87
2022-08-01T00:54:39.756Z,13.87
2022-08-01T00:57:09.898Z,13.81
2022-08-01T00:59:39.966Z,13.79
2022-08-01T01:02:14.921Z,13.75
2022-08-01T01:04:45.372Z,13.76
2022-08-01T01:07:21.356Z,13.73
2022-08-01T01:09:58.858Z,13.73
2022-08-01T01:12:37.410Z,13.77
2022-08-01T01:15:09.753Z,13.81
2022-08-01T01:17:50.090Z,13.75
2022-08-01T01:20:25.907Z,13.77
2022-08-01T01:23:07.778Z,13.75
2022-08-01T01:25:48.170Z,13.76
2022-08-01T01:28:23.288Z,13.72
2022-08-01T01:30:55.807Z,13.73
2022-08-01T01:33:26.268Z,13.74
2022-08-01T01:36:00.439Z,13.68
2022-08-01T01:38:31.739Z,13.68
2022-08-01T01:41:02.243Z,13.65
2022-08-01T01:43:33.419Z,13.62
2022-08-01T01:46:04.780Z,13.58
2022-08-01T01:48:34.618Z,13.65
2022-08-01T01:51:03.570Z,13.72
2022-08-01T01:53:34.538Z,13.78
2022-08-01T01:56:04.268Z,13.82
2022-08-01T01:58:35.258Z,13.81
2022-08-01T02:01:05.566Z,13.78
2022-08-01T02:03:44.786Z,13.79
2022-08-01T02:06:15.758Z,13.83
2022-08-01T02:08:46.148Z,13.87
2022-08-01T02:11:20.430Z,13.89
2022-08-01T02:13:57.954Z,13.85
2022-08-01T02:16:30.662Z,13.81
2022-08-01T02:18:58.674Z,13.79
2022-08-01T02:21:30.499Z,13.77
2022-08-01T02:24:06.137Z,13.74
2022-08-01T02:26:36.092Z,13.66
2022-08-01T02:29:09.828Z,13.67
2022-08-01T02:31:46.130Z,13.63
2022-08-01T02:34:19.097Z,13.58
2022-08-01T02:36:48.988Z,13.58
2022-08-01T02:39:20.037Z,13.60
2022-08-01T02:41:50.657Z,13.59
2022-08-01T02:44:25.810Z,13.59
2022-08-01T02:47:03.443Z,13.67
2022-08-01T02:49:35.117Z,13.63
2022-08-01T02:52:07.048Z,13.59
2022-08-01T02:54:36.393Z,13.58
2022-08-01T02:57:06.753Z,13.62
2022-08-01T02:59:39.845Z,13.71
2022-08-01T03:02:12.535Z,13.87
2022-08-01T03:04:43.592Z,14.08
2022-08-01T03:07:13.518Z,14.19
2022-08-01T03:09:45.653Z,14.22
2022-08-01T03:12:17.861Z,14.15
2022-08-01T03:14:48.142Z,14.15
2022-08-01T03:17:21.447Z,14.07
2022-08-01T03:19:52.127Z,14.01
2022-08-01T03:22:24.129Z,13.97
2022-08-01T03:24:55.309Z,13.95
2022-08-01T03:27:25.742Z,13.89
2022-08-01T03:29:57.231Z,13.89
2022-08-01T03:32:29.434Z,13.89
2022-08-01T03:34:58.378Z,13.91
2022-08-01T03:37:28.698Z,13.93
2022-08-01T03:40:00.989Z,13.97
2022-08-01T03:42:35.302Z,14.01
2022-08-01T03:45:07.820Z,14.12
2022-08-01T03:47:45.658Z,14.44
2022-08-01T03:50:16.416Z,15.19
2022-08-01T03:52:47.306Z,16.36
2022-08-01T03:55:18.557Z,17.51
2022-08-01T03:57:48.653Z,18.02
2022-08-01T04:00:19.570Z,18.53
2022-08-01T04:02:50.847Z,18.97
2022-08-01T04:05:19.350Z,19.40
2022-08-01T04:07:49.223Z,20.24
2022-08-01T04:10:18.047Z,20.36
2022-08-01T04:12:46.856Z,20.70
2022-08-01T04:15:15.183Z,21.41
2022-08-01T04:17:43.696Z,22.15
2022-08-01T04:20:14.052Z,22.44
2022-08-01T04:22:42.683Z,22.44
2022-08-01T04:25:16.752Z,22.76
2022-08-01T04:27:55.298Z,23.31
2022-08-01T04:30:28.130Z,23.59
2022-08-01T04:32:59.593Z,23.82
2022-08-01T04:36:01.606Z,24.02
2022-08-01T04:38:24.181Z,24.26
2022-08-01T04:40:54.459Z,24.07
2022-08-01T04:43:22.989Z,24.54
2022-08-01T04:45:52.856Z,24.92
2022-08-01T04:48:22.613Z,26.37
2022-08-01T04:50:52.874Z,26.63
2022-08-01T04:53:23.842Z,28.07
2022-08-01T04:55:51.999Z,28.01
2022-08-01T04:58:20.252Z,29.15
2022-08-01T05:00:49.032Z,29.75
2022-08-01T05:03:17.351Z,31.57
2022-08-01T05:05:45.547Z,32.04
2022-08-01T05:08:15.121Z,33.14
2022-08-01T05:10:43.225Z,32.81
2022-08-01T05:13:12.127Z,33.35
2022-08-01T05:15:40.265Z,34.32
2022-08-01T05:18:08.620Z,34.35
2022-08-01T05:20:38.062Z,34.02
2022-08-01T05:23:06.484Z,35.67
2022-08-01T05:25:56.900Z,35.48
2022-08-01T05:28:26.292Z,35.76
2022-08-01T05:30:56.060Z,35.90
2022-08-01T05:33:24.320Z,35.97
2022-08-01T05:35:52.491Z,35.27
2022-08-01T05:38:20.615Z,34.54
2022-08-01T05:40:50.194Z,32.83
2022-08-01T05:43:18.299Z,32.61
2022-08-01T05:45:47.159Z,33.76
2022-08-01T05:48:15.398Z,35.07
2022-08-01T05:50:43.554Z,33.33
2022-08-01T05:53:11.705Z,33.56
2022-08-01T05:55:39.821Z,34.40
2022-08-01T05:58:12.613Z,34.96
2022-08-01T06:00:41.051Z,35.36
2022-08-01T06:03:09.206Z,35.03
2022-08-01T06:05:37.326Z,35.22
2022-08-01T06:08:05.969Z,36.01
2022-08-01T06:10:34.312Z,35.92
2022-08-01T06:13:04.201Z,36.51
2022-08-01T06:15:34.474Z,36.97
2022-08-01T06:18:03.055Z,36.52
2022-08-01T06:20:31.183Z,36.16
2022-08-01T06:22:59.893Z,35.65
2022-08-01T06:25:29.147Z,35.34
2022-08-01T06:27:57.315Z,35.59
2022-08-01T06:30:25.593Z,36.29
2022-08-01T06:32:56.951Z,37.17
2022-08-01T06:35:24.859Z,36.45
2022-08-01T06:37:53.013Z,35.07
2022-08-01T06:40:21.165Z,35.65
2022-08-01T06:42:49.460Z,34.77
2022-08-01T06:45:18.389Z,34.19
2022-08-01T06:47:50.764Z,34.55
2022-08-01T06:50:20.980Z,34.73
2022-08-01T06:52:49.107Z,33.42
2022-08-01T06:55:17.347Z,32.47
2022-08-01T06:57:50.236Z,32.44
2022-08-01T07:00:23.682Z,31.28
2022-08-01T07:02:52.032Z,31.84
2022-08-01T07:05:21.837Z,32.09
2022-08-01T07:07:49.969Z,31.60
2022-08-01T07:10:18.915Z,31.70
2022-08-01T07:12:47.219Z,31.41
2022-08-01T07:15:15.571Z,31.18
2022-08-01T07:17:45.081Z,30.33
2022-08-01T07:20:16.578Z,30.22
2022-08-01T07:22:47.381Z,29.90
2022-08-01T07:25:16.612Z,29.79
2022-08-01T07:27:44.757Z,30.08
2022-08-01T07:30:13.598Z,29.72
2022-08-01T07:32:41.837Z,29.69
2022-08-01T07:35:10.850Z,30.07
2022-08-01T07:37:46.164Z,29.67
2022-08-01T07:40:19.823Z,29.97
2022-08-01T07:42:48.274Z,29.56
2022-08-01T07:45:19.077Z,29.51
2022-08-01T07:47:47.880Z,30.01
2022-08-01T07:50:16.065Z,30.63
2022-08-01T07:52:44.500Z,31.49
2022-08-01T07:55:16.417Z,31.79
2022-08-01T07:57:46.356Z,31.55
2022-08-01T08:00:15.332Z,31.64
2022-08-01T08:02:43.734Z,31.79
2022-08-01T08:05:11.951Z,31.45
2022-08-01T08:07:40.243Z,31.00
2022-08-01T08:10:09.161Z,30.53
2022-08-01T08:12:37.271Z,29.60
2022-08-01T08:15:07.938Z,28.57
2022-08-01T08:17:36.882Z,28.94
2022-08-01T08:20:09.271Z,29.11
2022-08-01T08:22:38.709Z,28.89
2022-08-01T08:25:09.869Z,28.97
2022-08-01T08:27:40.022Z,28.48
2022-08-01T08:30:12.224Z,28.55
2022-08-01T08:32:40.749Z,28.30
2022-08-01T08:35:12.172Z,28.21
2022-08-01T08:37:47.447Z,28.26
2022-08-01T08:40:18.069Z,28.30
2022-08-01T08:42:48.131Z,28.53
2022-08-01T08:45:17.833Z,28.53
2022-08-01T08:47:49.498Z,28.48
2022-08-01T08:50:18.214Z,27.45
2022-08-01T08:52:49.195Z,27.48
2022-08-01T08:55:18.704Z,27.51
2022-08-01T08:57:48.258Z,27.67
2022-08-01T09:00:18.384Z,27.32
2022-08-01T09:02:50.198Z,26.81
2022-08-01T09:05:20.235Z,26.97
2022-08-01T09:07:48.574Z,26.77
2022-08-01T09:10:16.721Z,26.78
2022-08-01T09:13:11.694Z,26.86
2022-08-01T09:15:46.221Z,26.64
2022-08-01T09:18:32.685Z,27.14
2022-08-01T09:21:16.166Z,27.49
2022-08-01T09:23:54.053Z,27.22
2022-08-01T09:26:30.151Z,27.10
2022-08-01T09:28:59.536Z,27.27
2022-08-01T09:31:38.143Z,27.05
2022-08-01T09:34:09.143Z,27.28
2022-08-01T09:36:54.087Z,27.37
2022-08-01T09:39:24.678Z,27.02
2022-08-01T09:41:53.203Z,27.38
2022-08-01T09:44:42.082Z,27.21
2022-08-01T09:47:15.565Z,27.43
2022-08-01T09:49:50.579Z,27.57
2022-08-01T09:52:26.199Z,27.44
2022-08-01T09:54:58.971Z,27.43
2022-08-01T09:57:28.369Z,27.64
2022-08-01T10:00:00.534Z,28.02
2022-08-01T10:02:34.345Z,28.44
2022-08-01T10:05:08.385Z,28.51
2022-08-01T10:10:28.994Z,28.81
2022-08-01T10:12:58.737Z,28.93
2022-08-01T10:15:37.026Z,29.35
2022-08-01T10:18:25.912Z,29.58
2022-08-01T10:20:56.628Z,29.33
2022-08-01T10:23:39.790Z,28.95
2022-08-01T10:26:09.887Z,28.91
2022-08-01T10:28:40.390Z,29.10
2022-08-01T10:31:13.212Z,29.05
2022-08-01T10:33:51.259Z,29.36
2022-08-01T10:36:22.738Z,29.80
2022-08-01T10:38:52.397Z,29.73
2022-08-01T10:41:21.283Z,29.79
2022-08-01T10:43:50.164Z,29.60
2022-08-01T10:46:21.033Z,29.80
2022-08-01T10:48:59.196Z,30.22
2022-08-01T10:51:51.613Z,30.21
2022-08-01T10:54:18.401Z,30.00
2022-08-01T10:56:48.754Z,29.75
2022-08-01T10:59:29.068Z,30.06
2022-08-01T11:02:10.357Z,29.78
2022-08-01T11:04:56.406Z,29.77
2022-08-01T11:07:37.745Z,30.35
2022-08-01T11:10:14.969Z,30.23
2022-08-01T11:12:44.460Z,29.89
2022-08-01T11:15:30.048Z,29.91
2022-08-01T11:18:01.324Z,29.97
2022-08-01T11:20:32.682Z,29.79
2022-08-01T11:23:19.140Z,29.41
2022-08-01T11:26:10.952Z,28.75
2022-08-01T11:28:50.250Z,28.67
2022-08-01T11:31:38.491Z,29.09
2022-08-01T11:34:07.230Z,28.93
2022-08-01T11:36:58.136Z,28.91
2022-08-01T11:39:25.126Z,28.71
2022-08-01T11:41:55.722Z,28.87
2022-08-01T11:44:30.296Z,29.17
2022-08-01T11:47:02.547Z,29.38
2022-08-01T11:50:00.580Z,28.91
2022-08-01T11:52:34.495Z,29.06
2022-08-01T11:55:11.487Z,29.09
2022-08-01T11:57:40.552Z,29.18
2022-08-01T12:00:16.453Z,29.11
2022-08-01T12:02:47.309Z,29.26
2022-08-01T12:05:24.678Z,28.95
2022-08-01T12:07:56.482Z,29.23
2022-08-01T12:10:26.024Z,28.71
2022-08-01T12:12:55.768Z,28.52
2022-08-01T12:15:25.557Z,28.37
2022-08-01T12:17:59.719Z,28.41
2022-08-01T12:20:31.147Z,28.64
2022-08-01T12:23:04.227Z,29.02
2022-08-01T12:25:32.742Z,28.87
2022-08-01T12:28:03.672Z,28.91
2022-08-01T12:30:36.463Z,28.70
2022-08-01T12:33:06.053Z,28.32
2022-08-01T12:35:35.172Z,28.14
2022-08-01T12:38:07.896Z,28.05
2022-08-01T12:40:42.140Z,27.92
2022-08-01T12:43:28.674Z,27.74
2022-08-01T12:45:58.859Z,27.98
2022-08-01T12:48:27.570Z,28.50
2022-08-01T12:50:58.852Z,28.54
2022-08-01T12:53:40.322Z,28.50
2022-08-01T12:56:09.214Z,28.42
2022-08-01T12:58:37.707Z,28.50
2022-08-01T13:01:07.612Z,28.33
2022-08-01T13:03:35.885Z,28.02
2022-08-01T13:06:13.622Z,28.06
2022-08-01T13:08:43.367Z,28.26
2022-08-01T13:11:15.529Z,28.52
2022-08-01T13:13:48.538Z,28.65
2022-08-01T13:16:30.376Z,28.42
2022-08-01T13:19:07.467Z,28.31
2022-08-01T13:21:53.652Z,28.31
2022-08-01T13:24:28.816Z,28.43
2022-08-01T13:27:00.698Z,28.90
2022-08-01T13:29:33.805Z,29.28
2022-08-01T13:32:02.503Z,29.44
2022-08-01T13:34:35.595Z,29.38
2022-08-01T13:37:04.415Z,29.44
2022-08-01T13:39:43.357Z,29.34
2022-08-01T13:42:12.988Z,29.29
2022-08-01T13:44:47.588Z,29.22
2022-08-01T13:47:16.931Z,29.27
2022-08-01T13:49:45.866Z,28.93
2022-08-01T13:52:14.122Z,29.16
2022-08-01T13:54:43.709Z,29.43
2022-08-01T13:57:11.939Z,29.31
2022-08-01T13:59:40.076Z,29.11
2022-08-01T14:02:08.684Z,28.77
2022-08-01T14:04:36.990Z,28.42
2022-08-01T14:07:10.572Z,28.25
2022-08-01T14:10:04.758Z,28.62
2022-08-01T14:12:28.699Z,28.65
2022-08-01T14:14:57.496Z,28.77
2022-08-01T14:17:25.727Z,28.95
2022-08-01T14:19:57.642Z,28.85
2022-08-01T14:22:25.863Z,28.60
2022-08-01T14:24:58.266Z,28.65
2022-08-01T14:27:31.972Z,28.93
2022-08-01T14:30:03.457Z,28.81
2022-08-01T14:32:31.893Z,28.78
2022-08-01T14:35:00.016Z,28.64
2022-08-01T14:37:31.703Z,28.72
2022-08-01T14:40:05.812Z,28.58
2022-08-01T14:42:37.505Z,28.65
2022-08-01T14:45:09.833Z,28.69
2022-08-01T14:47:38.515Z,28.57
2022-08-01T14:50:09.194Z,28.48
2022-08-01T14:52:38.022Z,28.73
2022-08-01T14:55:07.398Z,28.66
2022-08-01T14:57:37.455Z,28.71
2022-08-01T15:00:07.726Z,28.66
2022-08-01T15:02:35.926Z,28.82
2022-08-01T15:05:04.623Z,28.54
2022-08-01T15:07:33.504Z,28.70
2022-08-01T15:10:01.735Z,28.63
2022-08-01T15:12:49.364Z,28.55
2022-08-01T15:15:20.458Z,28.75
2022-08-01T15:17:48.604Z,28.76
2022-08-01T15:20:16.802Z,28.67
2022-08-01T15:22:45.099Z,28.89
2022-08-01T15:25:13.426Z,28.88
2022-08-01T15:27:41.706Z,28.81
2022-08-01T15:30:10.594Z,28.57
2022-08-01T15:32:40.502Z,28.44
2022-08-01T15:35:11.304Z,28.14
2022-08-01T15:37:42.831Z,28.17
2022-08-01T15:40:14.024Z,28.29
2022-08-01T15:42:42.291Z,28.41
2022-08-01T15:45:25.682Z,28.48
2022-08-01T15:48:01.052Z,28.35
2022-08-01T15:50:29.169Z,28.40
2022-08-01T15:52:57.340Z,28.45
2022-08-01T15:55:25.511Z,28.25
2022-08-01T15:57:53.707Z,28.05
2022-08-01T16:00:21.834Z,27.98
2022-08-01T16:02:50.018Z,28.12
2022-08-01T16:05:20.617Z,28.03
2022-08-01T16:07:58.093Z,27.92
2022-08-01T16:10:29.808Z,27.84
2022-08-01T16:12:58.012Z,27.95
2022-08-01T16:15:36.021Z,28.03
2022-08-01T16:18:05.992Z,28.08
2022-08-01T16:20:37.426Z,28.15
2022-08-01T16:23:07.349Z,28.03
2022-08-01T16:25:35.613Z,28.03
2022-08-01T16:28:03.757Z,27.94
2022-08-01T16:30:31.999Z,27.86
2022-08-01T16:33:08.231Z,27.73
2022-08-01T16:35:49.493Z,27.77
2022-08-01T16:38:20.905Z,27.80
2022-08-01T16:40:50.200Z,27.70
2022-08-01T16:43:20.263Z,27.64
2022-08-01T16:45:49.138Z,27.58
2022-08-01T16:48:18.548Z,27.44
2022-08-01T16:50:49.554Z,27.33
2022-08-01T16:53:20.746Z,27.35
2022-08-01T16:55:50.910Z,27.16
2022-08-01T16:58:27.366Z,27.15
2022-08-01T17:00:57.697Z,27.09
2022-08-01T17:03:51.186Z,27.01
2022-08-01T17:06:22.500Z,27.00
2022-08-01T17:08:52.204Z,26.92
2022-08-01T17:11:20.367Z,26.90
2022-08-01T17:13:49.012Z,26.88
2022-08-01T17:16:17.256Z,26.80
2022-08-01T17:18:45.480Z,26.72
2022-08-01T17:21:13.641Z,26.65
2022-08-01T17:23:41.844Z,26.59
2022-08-01T17:26:11.702Z,26.53
2022-08-01T17:28:39.862Z,26.45
2022-08-01T17:31:10.552Z,26.33
2022-08-01T17:33:46.085Z,26.25
2022-08-01T17:36:15.301Z,26.14
2022-08-01T17:38:43.519Z,26.08
2022-08-01T17:41:13.055Z,25.97
2022-08-01T17:43:41.249Z,25.93
2022-08-01T17:46:09.524Z,25.82
2022-08-01T17:48:37.773Z,25.77
2022-08-01T17:51:06.633Z,25.68
2022-08-01T17:53:35.060Z,25.54
2022-08-01T17:56:06.319Z,25.44
2022-08-01T17:58:51.275Z,25.31
2022-08-01T18:01:20.795Z,25.21
2022-08-01T18:03:49.556Z,25.19
2022-08-01T18:06:19.847Z,25.12
2022-08-01T18:08:55.441Z,25.04
2022-08-01T18:12:19.147Z,24.95
2022-08-01T18:14:48.642Z,24.89
2022-08-01T18:17:17.758Z,24.86
2022-08-01T18:19:46.776Z,24.78
2022-08-01T18:22:33.219Z,24.76
2022-08-01T18:25:04.126Z,24.78
2022-08-01T18:28:23.518Z,24.71
2022-08-01T18:30:27.254Z,24.71
2022-08-01T18:32:56.170Z,24.66
2022-08-01T18:35:37.185Z,24.60
2022-08-01T18:38:13.980Z,24.54
2022-08-01T18:40:42.743Z,24.47
2022-08-01T18:43:10.899Z,24.42
2022-08-01T18:45:42.934Z,24.43
2022-08-01T18:48:11.682Z,24.47
2022-08-01T18:50:40.686Z,24.52
2022-08-01T18:53:09.179Z,24.53
2022-08-01T18:55:37.396Z,24.48
2022-08-01T18:58:05.610Z,24.48
2022-08-01T19:00:33.758Z,24.48
2022-08-01T19:03:03.369Z,24.45
2022-08-01T19:05:35.931Z,24.43
2022-08-01T19:08:07.577Z,24.46
2022-08-01T19:10:36.631Z,24.48
2022-08-01T19:13:04.885Z,24.37
2022-08-01T19:15:33.133Z,24.36
2022-08-01T19:18:03.358Z,24.37
2022-08-01T19:20:31.808Z,24.31
2022-08-01T19:23:00.026Z,24.39
2022-08-01T19:25:28.555Z,24.40
2022-08-01T19:27:59.553Z,24.39
2022-08-01T19:30:28.774Z,24.39
2022-08-01T19:32:57.764Z,24.39
2022-08-01T19:35:27.361Z,24.37
2022-08-01T19:37:57.710Z,24.34
2022-08-01T19:40:28.267Z,24.30
2022-08-01T19:42:57.957Z,24.25
2022-08-01T19:45:30.695Z,24.16
2022-08-01T19:48:00.181Z,24.10
2022-08-01T19:50:30.781Z,24.09
2022-08-01T19:53:03.223Z,24.08
2022-08-01T19:55:36.271Z,24.04
2022-08-01T19:58:26.470Z,23.98
2022-08-01T20:00:56.072Z,23.96
2022-08-01T20:03:25.310Z,23.92
2022-08-01T20:05:55.262Z,23.86
2022-08-01T20:08:23.485Z,23.78
2022-08-01T20:10:52.909Z,23.59
2022-08-01T20:13:22.077Z,23.47
2022-08-01T20:15:50.532Z,23.38
2022-08-01T20:18:18.828Z,23.26
2022-08-01T20:20:48.414Z,23.18
2022-08-01T20:23:19.632Z,23.14
2022-08-01T20:25:50.670Z,23.18
2022-08-01T20:28:24.172Z,23.20
2022-08-01T20:30:56.061Z,23.21
2022-08-01T20:33:24.290Z,23.33
2022-08-01T20:35:54.182Z,23.42
2022-08-01T20:38:27.442Z,23.45
2022-08-01T20:40:58.874Z,23.45
2022-08-01T20:43:28.107Z,23.44
2022-08-01T20:45:57.623Z,23.49
2022-08-01T20:48:27.876Z,23.45
2022-08-01T20:51:14.245Z,23.56
2022-08-01T20:53:45.835Z,23.62
2022-08-01T20:56:18.464Z,23.66
2022-08-01T20:59:10.491Z,23.67
2022-08-01T21:02:04.542Z,23.64
2022-08-01T21:04:43.825Z,23.58
2022-08-01T21:07:23.517Z,23.42
2022-08-01T21:09:56.614Z,23.30
2022-08-01T21:12:29.222Z,23.17
2022-08-01T21:15:00.076Z,23.04
2022-08-01T21:17:38.993Z,22.87
2022-08-01T21:20:08.802Z,22.70
2022-08-01T21:22:41.619Z,22.55
2022-08-01T21:25:15.681Z,22.48
2022-08-01T21:27:47.745Z,22.22
2022-08-01T21:30:16.448Z,22.12
2022-08-01T21:32:45.036Z,21.94
2022-08-01T21:35:16.847Z,21.83
2022-08-01T21:37:52.153Z,21.70
2022-08-01T21:40:24.269Z,21.68
2022-08-01T21:42:54.187Z,21.66
2022-08-01T21:45:24.939Z,21.62
2022-08-01T21:47:53.509Z,21.55
2022-08-01T21:50:22.372Z,21.48
2022-08-01T21:52:55.649Z,21.42
2022-08-01T21:55:35.638Z,21.38
2022-08-01T21:58:19.283Z,21.36
2022-08-01T22:00:54.273Z,21.34
2022-08-01T22:03:25.713Z,21.30
2022-08-01T22:05:56.361Z,21.23
2022-08-01T22:08:31.235Z,21.20
2022-08-01T22:11:04.654Z,21.12
2022-08-01T22:13:34.066Z,21.02
2022-08-01T22:16:04.848Z,21.07
2022-08-01T22:18:36.982Z,21.00
2022-08-01T22:21:05.987Z,21.08
2022-08-01T22:23:37.293Z,21.05
2022-08-01T22:26:10.853Z,21.10
2022-08-01T22:28:41.327Z,21.08
2022-08-01T22:31:09.631Z,21.12
2022-08-01T22:33:39.787Z,21.05
2022-08-01T22:36:08.533Z,21.02
2022-08-01T22:38:36.691Z,20.99
2022-08-01T22:41:10.469Z,20.92
2022-08-01T22:43:43.232Z,20.83
2022-08-01T22:46:26.374Z,20.78
2022-08-01T22:49:01.042Z,20.71
2022-08-01T22:51:40.512Z,20.65
2022-08-01T22:54:11.295Z,20.60
2022-08-01T22:56:45.438Z,20.54
2022-08-01T22:59:18.271Z,20.54
2022-08-01T23:01:52.107Z,20.50
2022-08-01T23:04:24.270Z,20.50
2022-08-01T23:07:05.267Z,20.44
2022-08-01T23:09:53.360Z,20.40
2022-08-01T23:12:26.451Z,20.38
2022-08-01T23:14:56.443Z,20.52
2022-08-01T23:17:28.525Z,20.56
2022-08-01T23:19:59.261Z,20.60
2022-08-01T23:22:30.259Z,20.60
2022-08-01T23:25:04.305Z,20.65
2022-08-01T23:27:51.539Z,20.66
2022-08-01T23:30:31.977Z,20.64
2022-08-01T23:33:01.298Z,20.64
2022-08-01T23:35:30.588Z,20.64
2022-08-01T23:38:02.882Z,20.59
2022-08-01T23:40:32.184Z,20.53
2022-08-01T23:43:02.826Z,20.49
2022-08-01T23:46:02.004Z,20.53
2022-08-01T23:48:19.460Z,20.54
2022-08-01T23:50:47.750Z,20.69
2022-08-01T23:53:15.879Z,20.74
2022-08-01T23:55:44.647Z,20.70
2022-08-01T23:58:14.171Z,20.81
